Brod na Kupi, Croatia

2:30 AM CET on January 17, 2018 (GMT +0100)
Primorsko Goranska Zupanija | | Change Station

Elev 1082 ft 45.44 °N, 14.84 °E | Updated 9 seconds ago

Overcast
Overcast
49.1 °F
Feels Like 49 °F
N
0.0
Wind Variable Wind from West
Gusts 0.0 mph

Today
High -- | Low -- °F
--% Chance of Precip.
Yesterday
High -- | Low -- °F
Precip. -- in
Pressure 29.56 in
Visibility 6.2 miles
Clouds Few 700 ft
Mostly Cloudy 2700 ft
Overcast 4000 ft
Windchill 49 °F
Dew Point 45 °F
Humidity 87%
Rainfall 0.02 in
Snow Depth Not available.
7:35 AM 4:46 PM
Waning Crescent, 0% visible
METAR LDRI 170100Z 13005KT 9999 FEW007 BKN027 OVC040 10/08 Q1001
Pressure 29.56 in
Visibility 6.2 miles
Clouds Few 700 ft
Mostly Cloudy 2700 ft
Overcast 4000 ft
Windchill 49 °F
Dew Point 45 °F
Humidity 87%
Rainfall 0.02 in
Snow Depth Not available.
7:35 AM 4:46 PM
Waning Crescent, 0% visible
METAR LDRI 170100Z 13005KT 9999 FEW007 BKN027 OVC040 10/08 Q1001

Get Severe Weather Alerts

Thanks for signing up!

Be on the lookout for a verification email in your inbox.

You'll start receiving the daily forecast at 6 AM.

×

10-Day Weather Forecast

×

Almanac

Astronomy

Jan. 17, 2018 Rise Set
Actual Time
Civil Twilight
Nautical Twilight
Astronomical Twilight
Moon
Length of Visible Light
Length of Day
Tomorrow will be .
, % of the Moon is Illuminated

Today's Extremes

Country Highs Country Lows

Community

WunderPhotos

Category 6

Welcome to Category 6. This is the collective home for Weather Underground's featured writeups by Dr. Jeff Masters (right), Bob Henson (left), Chris Burt, and other regular contributors.

Nearby

Air Quality

  Air Quality AQ Index Pollutant
Not available.

Snow Depth

Station Depth Elevation

Earthquake Activity

City Distance Mag. Time & Date
Minimum magnitude displayed is 2.5.

Coastal Water Temperatures

Place Temperature

Stations

Nearby Weather Stations

Station Location Temp. Windchill Dew Point Humidity Wind Precip. Elev Updated Type